Time;durP1;ratioP1;P1;durP2;ratioP2;P2;SDS_P1;SDS_P2;PMS_P1;PMS_P2;Temp;Humidity;BMP_temperature;BMP_pressure;BME280_temperature;BME280_humidity;BME280_pressure;Samples;Min_cycle;Max_cycle;Signal;HPM_P1;HPM_P2
2023/07/16 00:02:11;;;;;;;5.70;3.70;;;;;;;14.42;100.00;101009.21;105903;1254;73816;-44
2023/07/16 00:04:39;;;;;;;14.00;4.50;;;;;;;14.37;100.00;101013.30;105880;1254;65543;-43
2023/07/16 00:07:06;;;;;;;6.90;3.90;;;;;;;14.32;100.00;101014.81;105905;1254;72631;-43
2023/07/16 00:09:33;;;;;;;10.70;4.30;;;;;;;14.28;100.00;101012.66;105897;1254;61959;-44
2023/07/16 00:12:00;;;;;;;6.10;3.70;;;;;;;14.28;100.00;101017.70;105936;1254;60447;-43
2023/07/16 00:14:27;;;;;;;7.90;3.60;;;;;;;14.28;100.00;101008.67;105668;1256;321954;-43
2023/07/16 00:18:24;;;;;;;7.80;4.30;;;;;;;14.28;100.00;101014.92;102472;1293;599894;-44
2023/07/16 00:20:51;;;;;;;10.50;5.00;;;;;;;14.32;100.00;101009.98;105180;1269;62002;-44
2023/07/16 00:23:18;;;;;;;12.60;4.30;;;;;;;14.33;100.00;101002.29;105220;1264;60166;-44
2023/07/16 00:25:47;;;;;;;12.70;4.30;;;;;;;14.33;100.00;101000.73;105152;1270;72078;-43
2023/07/16 00:28:15;;;;;;;11.30;3.70;;;;;;;14.33;100.00;101000.23;105181;1264;65357;-44
2023/07/16 00:30:41;;;;;;;8.20;3.90;;;;;;;14.34;100.00;101005.05;105046;1264;215017;-43
2023/07/16 00:33:09;;;;;;;10.70;4.20;;;;;;;14.35;100.00;101002.94;105199;1266;61773;-44
2023/07/16 00:35:36;;;;;;;8.60;3.70;;;;;;;14.35;100.00;101000.69;105275;1263;60266;-44
2023/07/16 00:38:03;;;;;;;11.30;3.70;;;;;;;14.37;100.00;101001.67;105177;1264;72072;-44
2023/07/16 00:40:31;;;;;;;8.30;3.80;;;;;;;14.38;100.00;101002.51;105297;1263;65422;-44
2023/07/16 00:42:58;;;;;;;11.20;3.80;;;;;;;14.37;100.00;100999.24;105215;1262;72462;-44
2023/07/16 00:45:25;;;;;;;4.20;3.60;;;;;;;14.37;100.00;100996.30;105132;1269;61987;-44
2023/07/16 00:47:52;;;;;;;5.60;3.70;;;;;;;14.36;100.00;101001.52;105245;1264;60251;-45
2023/07/16 00:50:19;;;;;;;7.80;3.40;;;;;;;14.35;100.00;101003.45;105143;1268;73029;-45
2023/07/16 00:52:46;;;;;;;6.90;3.30;;;;;;;14.33;100.00;101004.04;105001;1269;65481;-44
2023/07/16 00:55:13;;;;;;;7.90;3.60;;;;;;;14.32;100.00;101003.20;105169;1264;71671;-44
2023/07/16 00:57:41;;;;;;;6.40;3.40;;;;;;;14.31;100.00;101002.87;105245;1264;61806;-44
2023/07/16 01:00:10;;;;;;;5.50;3.50;;;;;;;14.33;100.00;101005.77;105255;1260;60363;-44
2023/07/16 01:02:38;;;;;;;4.70;3.10;;;;;;;14.36;100.00;101007.07;105367;1260;73087;-42
2023/07/16 01:05:05;;;;;;;6.60;3.20;;;;;;;14.35;100.00;101007.27;105340;1264;65481;-44
2023/07/16 01:07:33;;;;;;;5.80;2.90;;;;;;;14.34;100.00;101010.94;105324;1261;72566;-44
2023/07/16 01:10:02;;;;;;;6.50;2.90;;;;;;;14.32;100.00;101006.66;105262;1266;60943;-44
2023/07/16 01:12:29;;;;;;;13.60;3.30;;;;;;;14.28;100.00;101005.02;105256;1260;59759;-43
2023/07/16 01:14:56;;;;;;;7.90;2.70;;;;;;;14.24;100.00;101003.73;105310;1261;72992;-43
2023/07/16 01:17:23;;;;;;;4.50;2.90;;;;;;;14.21;100.00;101004.67;105283;1260;65553;-43
2023/07/16 01:19:50;;;;;;;17.30;3.60;;;;;;;14.18;100.00;101001.28;105329;1261;72688;-42
2023/07/16 01:22:29;;;;;;;3.80;3.20;;;;;;;14.16;100.00;100999.41;105326;1264;61740;-43
2023/07/16 01:25:11;;;;;;;5.50;3.40;;;;;;;14.15;100.00;101006.04;105327;1260;60204;-43
2023/07/16 01:28:03;;;;;;;9.70;4.10;;;;;;;14.16;100.00;101004.97;105351;1264;71829;-44
2023/07/16 01:30:31;;;;;;;5.60;3.00;;;;;;;14.20;100.00;101006.59;105282;1260;64388;-43
2023/07/16 01:32:58;;;;;;;5.70;2.90;;;;;;;14.25;100.00;101007.01;105251;1260;72623;-43
2023/07/16 01:35:25;;;;;;;3.80;3.40;;;;;;;14.27;100.00;101009.21;105299;1264;61664;-43
2023/07/16 01:37:53;;;;;;;5.30;3.20;;;;;;;14.26;100.00;101006.45;105289;1260;60310;-43
2023/07/16 01:40:20;;;;;;;6.80;3.00;;;;;;;14.23;100.00;101004.80;105232;1266;72721;-43
2023/07/16 01:42:47;;;;;;;4.00;3.20;;;;;;;14.20;100.00;101004.52;105256;1263;65352;-43
2023/07/16 01:45:14;;;;;;;7.00;3.10;;;;;;;14.16;100.00;101001.69;105256;1260;72644;-43
2023/07/16 01:48:00;;;;;;;5.10;2.70;;;;;;;14.11;100.00;101002.32;105262;1264;62014;-43
2023/07/16 01:50:27;;;;;;;5.00;3.40;;;;;;;14.07;100.00;101002.93;105284;1263;60175;-43
2023/07/16 01:52:54;;;;;;;5.30;3.20;;;;;;;14.03;100.00;100998.35;105234;1261;73044;-43
2023/07/16 01:55:23;;;;;;;7.00;3.30;;;;;;;14.01;100.00;100998.39;105217;1266;65202;-43
2023/07/16 01:57:50;;;;;;;8.30;3.60;;;;;;;13.99;100.00;101001.20;105280;1261;72518;-43
2023/07/16 02:00:18;;;;;;;6.50;3.20;;;;;;;13.99;100.00;101003.46;105254;1266;61822;-43
2023/07/16 02:02:46;;;;;;;13.20;3.30;;;;;;;13.99;100.00;101004.51;105273;1261;60159;-43
2023/07/16 02:05:14;;;;;;;4.70;2.90;;;;;;;14.00;100.00;101005.86;105280;1266;72819;-43
2023/07/16 02:07:42;;;;;;;10.70;3.00;;;;;;;14.02;100.00;101008.59;105279;1261;65674;-44
2023/07/16 02:10:09;;;;;;;10.00;2.80;;;;;;;14.03;100.00;101012.39;105290;1264;72732;-44
2023/07/16 02:12:35;;;;;;;8.90;2.90;;;;;;;14.03;100.00;101012.23;105238;1266;60770;-45
2023/07/16 02:15:04;;;;;;;7.40;3.00;;;;;;;14.01;100.00;101015.92;105193;1263;60355;-47
2023/07/16 02:17:35;;;;;;;7.10;2.80;;;;;;;13.94;100.00;101016.60;105252;1266;72815;-46
2023/07/16 02:20:05;;;;;;;4.40;3.20;;;;;;;13.87;100.00;101017.29;105309;1265;65562;-43
2023/07/16 02:22:35;;;;;;;3.20;2.70;;;;;;;13.82;100.00;101022.08;105234;1261;72630;-45
2023/07/16 02:25:02;;;;;;;8.70;2.80;;;;;;;13.79;100.00;101022.85;105322;1266;61780;-46
2023/07/16 02:27:29;;;;;;;8.00;3.20;;;;;;;13.75;100.00;101022.05;105300;1261;60667;-45
2023/07/16 02:29:56;;;;;;;5.00;2.80;;;;;;;13.73;100.00;101024.17;105218;1265;72000;-43
2023/07/16 02:32:23;;;;;;;8.90;2.70;;;;;;;13.73;100.00;101027.50;105228;1265;65375;-43
2023/07/16 02:34:50;;;;;;;6.50;3.00;;;;;;;13.73;100.00;101028.54;105215;1260;72623;-43
2023/07/16 02:37:17;;;;;;;5.80;2.60;;;;;;;13.73;100.00;101029.21;105241;1266;62003;-43
2023/07/16 02:39:45;;;;;;;7.80;3.10;;;;;;;13.75;100.00;101033.50;105252;1260;60100;-43
2023/07/16 02:42:11;;;;;;;6.00;2.90;;;;;;;13.81;100.00;101036.52;105270;1265;73020;-43
2023/07/16 02:44:43;;;;;;;7.10;2.90;;;;;;;13.88;100.00;101041.20;105224;1265;65462;-43
2023/07/16 02:47:11;;;;;;;10.50;3.00;;;;;;;13.96;100.00;101043.27;105277;1261;72652;-43
2023/07/16 02:49:38;;;;;;;6.40;2.70;;;;;;;14.03;100.00;101041.39;105258;1265;62021;-43
2023/07/16 02:52:06;;;;;;;6.10;3.00;;;;;;;14.08;100.00;101036.41;105265;1265;59632;-43
2023/07/16 02:54:33;;;;;;;12.10;3.00;;;;;;;14.14;100.00;101035.05;105300;1265;73005;-43
2023/07/16 02:57:00;;;;;;;4.20;2.80;;;;;;;14.24;100.00;101040.02;105218;1263;65271;-43
2023/07/16 02:59:28;;;;;;;3.40;3.00;;;;;;;14.33;100.00;101046.73;105265;1260;72612;-44
2023/07/16 03:01:55;;;;;;;8.00;3.10;;;;;;;14.44;100.00;101043.51;105268;1263;60391;-43
2023/07/16 03:04:22;;;;;;;15.50;3.00;;;;;;;14.55;100.00;101046.90;105302;1260;60336;-43
2023/07/16 03:06:49;;;;;;;7.60;2.70;;;;;;;14.63;100.00;101047.02;105276;1266;73075;-43
2023/07/16 03:09:16;;;;;;;8.30;2.90;;;;;;;14.72;100.00;101044.56;105272;1263;65389;-43
2023/07/16 03:11:44;;;;;;;5.90;2.50;;;;;;;14.79;100.00;101048.91;105225;1260;72575;-43
2023/07/16 03:14:11;;;;;;;2.50;2.40;;;;;;;14.85;100.00;101052.91;105254;1266;61895;-44
2023/07/16 03:16:38;;;;;;;5.00;3.00;;;;;;;14.90;100.00;101059.04;105228;1260;60158;-43
2023/07/16 03:19:07;;;;;;;7.60;3.20;;;;;;;14.92;100.00;101062.27;105207;1266;73023;-43
2023/07/16 03:21:34;;;;;;;10.20;3.30;;;;;;;14.94;100.00;101073.69;105267;1265;65258;-43
2023/07/16 03:24:01;;;;;;;10.40;3.30;;;;;;;14.97;100.00;101068.08;105227;1264;71671;-43
2023/07/16 03:26:28;;;;;;;11.10;3.80;;;;;;;15.00;100.00;101064.34;105259;1266;60960;-43
2023/07/16 03:28:55;;;;;;;10.60;3.70;;;;;;;15.05;100.00;101066.14;105229;1260;60292;-43
2023/07/16 03:31:22;;;;;;;13.10;3.80;;;;;;;15.11;100.00;101067.52;105228;1266;73021;-43
2023/07/16 03:33:50;;;;;;;6.50;3.30;;;;;;;15.20;100.00;101069.18;105278;1268;65700;-43
2023/07/16 03:36:18;;;;;;;16.90;3.40;;;;;;;15.31;100.00;101074.09;105279;1260;72605;-44
2023/07/16 03:38:45;;;;;;;12.90;3.20;;;;;;;15.43;100.00;101076.70;105285;1263;60741;-44
2023/07/16 03:41:13;;;;;;;6.90;2.80;;;;;;;15.56;100.00;101080.50;105285;1260;60118;-43
2023/07/16 03:43:40;;;;;;;16.40;3.60;;;;;;;15.71;100.00;101076.61;105278;1260;72741;-43
2023/07/16 03:46:18;;;;;;;17.10;4.00;;;;;;;15.87;100.00;101076.14;105258;1265;65336;-43
2023/07/16 03:48:46;;;;;;;13.40;3.20;;;;;;;16.01;100.00;101076.73;105302;1263;72653;-43
2023/07/16 03:51:13;;;;;;;9.10;2.70;;;;;;;16.18;100.00;101082.66;105269;1266;61668;-43
2023/07/16 03:53:41;;;;;;;7.50;2.70;;;;;;;16.35;100.00;101088.90;105280;1260;60341;-43
2023/07/16 03:56:08;;;;;;;9.00;3.00;;;;;;;16.57;100.00;101097.76;105231;1263;72750;-44
2023/07/16 03:58:35;;;;;;;6.50;2.60;;;;;;;16.84;100.00;101112.71;105223;1263;64368;-44
2023/07/16 04:01:02;;;;;;;13.20;2.60;;;;;;;17.14;100.00;101130.02;105206;1260;72537;-44
2023/07/16 04:03:30;;;;;;;5.30;2.60;;;;;;;17.44;100.00;101139.27;105243;1265;60126;-44
2023/07/16 04:06:09;;;;;;;7.70;2.40;;;;;;;17.72;100.00;101164.59;105279;1260;60207;-44
2023/07/16 04:08:38;;;;;;;5.20;2.10;;;;;;;18.02;100.00;101203.48;105229;1261;73031;-43
2023/07/16 04:11:06;;;;;;;4.20;2.20;;;;;;;18.25;100.00;101260.06;105281;1263;65470;-43
2023/07/16 04:13:33;;;;;;;6.40;2.60;;;;;;;18.43;100.00;101339.61;105787;1254;72834;-43
2023/07/16 04:16:00;;;;;;;5.00;2.10;;;;;;;18.67;100.00;101427.67;105790;1257;60210;-48
2023/07/16 04:18:28;;;;;;;11.40;2.20;;;;;;;18.95;100.00;101517.58;105795;1254;60263;-43
2023/07/16 04:20:55;;;;;;;6.20;2.40;;;;;;;19.18;100.00;101565.05;105839;1254;72907;-44
2023/07/16 04:23:23;;;;;;;9.80;2.60;;;;;;;19.37;100.00;101502.39;105778;1253;65500;-43
2023/07/16 04:25:53;;;;;;;7.70;2.70;;;;;;;19.56;100.00;101334.13;105730;1254;72545;-43
2023/07/16 04:28:19;;;;;;;6.40;2.20;;;;;;;19.83;100.00;101177.46;105771;1254;60407;-44
2023/07/16 04:30:47;;;;;;;9.10;2.60;;;;;;;20.12;100.00;101029.73;105815;1254;60661;-44
2023/07/16 04:33:14;;;;;;;9.30;2.40;;;;;;;20.38;100.00;100856.01;105754;1253;73858;-44
2023/07/16 04:35:43;;;;;;;5.80;2.40;;;;;;;20.53;100.00;100665.02;105735;1257;65543;-44
2023/07/16 04:38:10;;;;;;;4.50;2.30;;;;;;;20.68;100.00;100588.96;105761;1254;72535;-44
2023/07/16 04:40:37;;;;;;;5.50;2.40;;;;;;;20.82;100.00;100569.40;105754;1258;60319;-44
2023/07/16 04:43:04;;;;;;;11.60;2.40;;;;;;;20.90;100.00;100581.55;105808;1254;60811;-43
2023/07/16 04:45:32;;;;;;;3.70;2.10;;;;;;;21.06;100.00;100593.08;105805;1257;73852;-44
2023/07/16 04:47:59;;;;;;;4.70;2.50;;;;;;;21.28;100.00;100604.02;105742;1254;64350;-44
2023/07/16 04:50:26;;;;;;;2.90;2.40;;;;;;;21.45;100.00;100637.58;105753;1254;72671;-44
2023/07/16 04:52:53;;;;;;;7.90;2.60;;;;;;;21.61;100.00;100668.23;105772;1257;60405;-43
2023/07/16 04:55:20;;;;;;;5.30;2.40;;;;;;;21.79;100.00;100675.36;105771;1254;60431;-44
2023/07/16 04:57:47;;;;;;;3.70;2.50;;;;;;;22.06;100.00;100676.39;105770;1257;74563;-44
2023/07/16 05:00:14;;;;;;;9.80;2.70;;;;;;;22.17;100.00;100736.96;105768;1257;65677;-44
2023/07/16 05:02:41;;;;;;;5.40;2.70;;;;;;;22.06;100.00;100787.88;105745;1254;72469;-44
2023/07/16 05:05:10;;;;;;;3.90;2.20;;;;;;;22.16;100.00;100771.84;105734;1257;60812;-44
2023/07/16 05:07:37;;;;;;;3.80;2.10;;;;;;;22.31;100.00;100769.52;105866;1254;60530;-44
2023/07/16 05:10:05;;;;;;;4.70;2.30;;;;;;;22.46;100.00;100785.09;105902;1256;73555;-45
2023/07/16 05:12:33;;;;;;;4.60;2.10;;;;;;;22.48;100.00;100825.10;105894;1253;65335;-44
2023/07/16 05:15:00;;;;;;;3.00;2.60;;;;;;;22.42;100.00;100853.21;105951;1253;72625;-44
2023/07/16 05:17:27;;;;;;;5.90;2.20;;;;;;;22.48;100.00;100851.98;105918;1257;60478;-44
2023/07/16 05:19:54;;;;;;;4.50;2.30;;;;;;;22.67;100.00;100827.23;105907;1254;60405;-44
2023/07/16 05:22:21;;;;;;;1.70;1.60;;;;;;;22.82;100.00;100836.83;105905;1256;73818;-44
2023/07/16 05:24:48;;;;;;;3.40;2.00;;;;;;;22.94;100.00;100860.15;105879;1254;65435;-44
2023/07/16 05:27:15;;;;;;;3.80;2.10;;;;;;;23.00;100.00;100881.95;105868;1254;72926;-45
2023/07/16 05:29:41;;;;;;;5.50;2.20;;;;;;;23.08;100.00;100890.77;105890;1257;60430;-44
2023/07/16 05:32:08;;;;;;;5.10;2.10;;;;;;;23.16;100.00;100896.77;105919;1254;60417;-44
2023/07/16 05:34:36;;;;;;;4.40;1.80;;;;;;;23.33;100.00;100913.65;105934;1254;73761;-44
2023/07/16 05:37:04;;;;;;;3.90;1.80;;;;;;;23.51;100.00;100926.27;105886;1256;65324;-44
2023/07/16 05:39:31;;;;;;;4.40;1.80;;;;;;;23.63;100.00;100933.21;105939;1254;72520;-44
2023/07/16 05:41:58;;;;;;;2.70;1.90;;;;;;;23.75;100.00;100941.05;105910;1256;60371;-44
2023/07/16 05:44:24;;;;;;;3.80;1.80;;;;;;;23.93;100.00;100940.40;105898;1254;60421;-44
2023/07/16 05:46:51;;;;;;;1.70;1.60;;;;;;;24.11;100.00;100944.70;105869;1254;73836;-44
2023/07/16 05:49:18;;;;;;;2.10;1.50;;;;;;;24.33;100.00;100968.79;105905;1256;64429;-44
2023/07/16 05:51:45;;;;;;;2.00;1.70;;;;;;;24.58;100.00;100973.40;105899;1254;72493;-44
2023/07/16 05:54:12;;;;;;;4.90;1.90;;;;;;;24.74;91.35;100957.48;105908;1256;60425;-44
2023/07/16 05:56:39;;;;;;;3.10;1.60;;;;;;;24.68;81.60;100951.06;105907;1254;60456;-44
2023/07/16 05:59:07;;;;;;;3.70;1.50;;;;;;;24.53;77.23;100947.45;105945;1255;73630;-44
2023/07/16 06:01:35;;;;;;;3.50;1.70;;;;;;;24.40;76.68;100974.61;105936;1254;65298;-44
2023/07/16 06:04:02;;;;;;;3.80;1.60;;;;;;;24.33;77.01;100991.84;105897;1254;72626;-45
2023/07/16 06:06:30;;;;;;;2.20;1.60;;;;;;;24.32;74.04;100966.73;105933;1256;60348;-45
2023/07/16 06:08:57;;;;;;;2.40;1.40;;;;;;;24.32;77.10;101008.52;105909;1254;60827;-45
2023/07/16 06:11:24;;;;;;;2.70;1.70;;;;;;;24.38;75.45;100989.40;105933;1254;73694;-44
2023/07/16 06:13:55;;;;;;;3.30;1.40;;;;;;;24.49;78.50;101019.52;105877;1256;65350;-44
2023/07/16 06:16:22;;;;;;;3.30;1.40;;;;;;;24.69;76.52;100985.20;105899;1256;72620;-45
2023/07/16 06:18:49;;;;;;;4.20;1.70;;;;;;;24.74;75.87;100987.28;105864;1256;60352;-44
2023/07/16 06:21:16;;;;;;;4.10;1.70;;;;;;;24.90;78.10;101007.58;105910;1254;62039;-44
2023/07/16 06:23:43;;;;;;;8.10;1.80;;;;;;;25.09;75.11;100974.25;105898;1254;73868;-45
2023/07/16 06:26:12;;;;;;;3.30;1.60;;;;;;;25.20;71.62;100940.29;105863;1257;65323;-44
2023/07/16 06:28:39;;;;;;;7.80;1.60;;;;;;;25.29;70.93;100951.67;105905;1254;73092;-45
2023/07/16 06:31:06;;;;;;;3.10;1.70;;;;;;;25.39;71.35;100969.14;105885;1254;60424;-44
2023/07/16 06:33:34;;;;;;;3.20;1.60;;;;;;;25.47;71.98;100989.77;105870;1254;60521;-44
2023/07/16 06:36:01;;;;;;;8.30;2.60;;;;;;;25.52;73.29;100999.30;105877;1256;73681;-45
2023/07/16 06:38:29;;;;;;;5.90;2.10;;;;;;;25.57;70.85;100960.23;105917;1257;65343;-45
2023/07/16 06:40:56;;;;;;;3.40;2.00;;;;;;;25.59;70.51;100962.73;105958;1253;72541;-47
2023/07/16 06:43:24;;;;;;;11.50;2.60;;;;;;;25.62;69.53;100957.03;105874;1256;60351;-47
2023/07/16 06:45:52;;;;;;;4.00;2.20;;;;;;;25.52;70.04;100978.45;105808;1254;60645;-46
2023/07/16 06:48:20;;;;;;;3.70;2.10;;;;;;;25.47;68.93;100961.14;105880;1256;73720;-44
2023/07/16 06:50:47;;;;;;;3.40;1.50;;;;;;;25.52;69.56;100983.25;105898;1256;65432;-44
2023/07/16 06:53:14;;;;;;;3.90;2.10;;;;;;;25.68;68.32;100962.13;105864;1254;73125;-49
2023/07/16 06:55:41;;;;;;;8.00;2.10;;;;;;;25.79;70.46;101009.35;105864;1257;60352;-44
2023/07/16 06:58:11;;;;;;;6.60;2.10;;;;;;;26.01;70.83;101004.36;105875;1253;60537;-44
2023/07/16 07:00:39;;;;;;;4.40;2.30;;;;;;;26.27;69.23;100966.02;105893;1256;73790;-45
2023/07/16 07:03:06;;;;;;;6.20;1.80;;;;;;;26.27;61.84;100803.45;105920;1256;65373;-44
2023/07/16 07:05:35;;;;;;;6.90;2.80;;;;;;;26.04;60.31;100809.14;105901;1254;73074;-44
2023/07/16 07:08:03;;;;;;;8.30;4.60;;;;;;;25.98;58.28;100762.77;105898;1256;60444;-45
2023/07/16 07:10:30;;;;;;;2.30;2.10;;;;;;;25.89;56.66;100720.35;105885;1254;60447;-44
2023/07/16 07:12:57;;;;;;;3.50;1.80;;;;;;;25.84;55.31;100666.69;105894;1254;73873;-45
2023/07/16 07:15:24;;;;;;;4.10;2.00;;;;;;;25.77;55.76;100741.45;105915;1256;65377;-45
2023/07/16 07:17:52;;;;;;;4.70;1.70;;;;;;;25.72;56.96;100836.20;105913;1254;72479;-45
2023/07/16 07:20:19;;;;;;;2.40;1.80;;;;;;;25.76;57.46;100861.65;105935;1257;60438;-44
2023/07/16 07:22:45;;;;;;;2.10;2.00;;;;;;;25.76;55.84;100771.55;105920;1254;60445;-44
2023/07/16 07:25:12;;;;;;;2.60;1.70;;;;;;;25.77;54.65;100709.78;105903;1254;74254;-44
2023/07/16 07:27:39;;;;;;;1.60;1.40;;;;;;;25.79;54.90;100735.40;105901;1256;65419;-44
2023/07/16 07:30:07;;;;;;;2.10;1.30;;;;;;;25.81;53.42;100649.73;105897;1254;72737;-43
2023/07/16 07:32:36;;;;;;;4.50;1.60;;;;;;;25.85;53.61;100694.46;105887;1254;60409;-44
2023/07/16 07:35:04;;;;;;;1.00;1.00;;;;;;;25.98;53.84;100713.60;105926;1254;60530;-43
2023/07/16 07:37:31;;;;;;;4.80;1.00;;;;;;;26.22;53.49;100682.90;105917;1254;73643;-44
2023/07/16 07:39:58;;;;;;;3.20;1.20;;;;;;;26.44;52.81;100657.41;105928;1256;65460;-44
2023/07/16 07:42:26;;;;;;;8.60;1.40;;;;;;;26.62;51.62;100547.14;105911;1254;72770;-44
2023/07/16 07:44:57;;;;;;;2.90;1.30;;;;;;;26.66;51.34;100540.08;105949;1254;60532;-44
2023/07/16 07:47:24;;;;;;;6.50;1.40;;;;;;;26.71;50.84;100523.73;105874;1254;60529;-44
2023/07/16 07:49:52;;;;;;;1.30;1.00;;;;;;;26.74;50.63;100512.00;105913;1256;73913;-44
2023/07/16 07:52:19;;;;;;;5.10;1.30;;;;;;;26.75;50.98;100546.05;105971;1256;66683;-44
2023/07/16 07:54:47;;;;;;;1.70;1.10;;;;;;;26.88;50.50;100523.41;105968;1254;72579;-44
2023/07/16 07:57:14;;;;;;;2.00;1.30;;;;;;;27.02;52.18;100701.32;105924;1254;60339;-45
2023/07/16 07:59:44;;;;;;;2.00;0.90;;;;;;;27.08;48.08;100318.27;105872;1254;60527;-45
2023/07/16 08:02:11;;;;;;;1.00;1.00;;;;;;;26.74;47.86;100289.34;105852;1256;73792;-45
2023/07/16 08:04:38;;;;;;;8.00;1.10;;;;;;;26.50;47.78;100315.21;105918;1256;65480;-45
2023/07/16 08:07:05;;;;;;;6.20;1.20;;;;;;;26.54;48.68;100429.67;105878;1254;72565;-44
2023/07/16 08:09:32;;;;;;;3.30;1.20;;;;;;;26.70;47.23;100294.71;105928;1256;60424;-46
2023/07/16 08:12:00;;;;;;;2.50;1.00;;;;;;;26.84;48.01;100346.91;105914;1254;60485;-44
2023/07/16 08:14:27;;;;;;;3.00;1.10;;;;;;;26.97;47.77;100353.94;106368;1254;73725;-45
2023/07/16 08:16:55;;;;;;;6.10;1.00;;;;;;;27.01;46.21;100196.38;105711;1257;65742;-45
2023/07/16 08:19:22;;;;;;;3.80;1.10;;;;;;;26.93;45.35;100089.64;105833;1254;72694;-45
2023/07/16 08:21:49;;;;;;;3.10;1.20;;;;;;;27.08;46.06;100180.30;105884;1256;60428;-43
2023/07/16 08:24:16;;;;;;;4.40;0.90;;;;;;;27.24;45.62;100146.02;105903;1253;61056;-44
2023/07/16 08:26:44;;;;;;;5.10;1.10;;;;;;;27.17;45.70;100149.23;105948;1254;73963;-44
2023/07/16 08:29:12;;;;;;;1.70;0.90;;;;;;;27.08;45.64;100167.08;105783;1256;65469;-45
2023/07/16 08:31:39;;;;;;;3.40;0.80;;;;;;;26.91;45.93;100211.39;105864;1254;72304;-45
2023/07/16 08:34:07;;;;;;;1.80;0.80;;;;;;;26.69;46.32;100254.93;105887;1256;60784;-45
2023/07/16 08:36:36;;;;;;;3.80;1.10;;;;;;;26.38;46.59;100329.48;106008;1252;60526;-45
2023/07/16 08:39:03;;;;;;;2.20;1.10;;;;;;;26.23;47.68;100444.29;105707;1256;73680;-45
2023/07/16 08:41:30;;;;;;;1.30;1.00;;;;;;;26.30;48.54;100553.88;105879;1257;65536;-44
2023/07/16 08:43:57;;;;;;;2.30;0.90;;;;;;;26.32;48.73;100600.01;105819;1254;72757;-45
2023/07/16 08:46:24;;;;;;;4.00;1.00;;;;;;;26.18;47.72;100492.94;105771;1256;60658;-45
2023/07/16 08:48:51;;;;;;;2.30;1.00;;;;;;;26.07;48.89;100625.21;105956;1254;60432;-44
2023/07/16 08:51:18;;;;;;;2.60;1.10;;;;;;;26.26;46.73;100402.53;105617;1258;74139;-44
2023/07/16 08:53:45;;;;;;;5.40;1.20;;;;;;;26.30;46.22;100303.69;105880;1256;64355;-44
2023/07/16 08:56:12;;;;;;;1.80;1.00;;;;;;;26.34;44.96;100167.02;105637;1254;72876;-46
2023/07/16 08:58:39;;;;;;;3.70;1.10;;;;;;;26.48;44.61;100124.56;105629;1259;60476;-43
2023/07/16 09:01:06;;;;;;;4.50;1.30;;;;;;;26.79;44.11;100066.70;105678;1254;60536;-44
2023/07/16 09:03:33;;;;;;;1.20;1.10;;;;;;;27.14;43.94;100026.93;105884;1256;74032;-44
2023/07/16 09:06:02;;;;;;;2.00;0.80;;;;;;;27.44;43.47;99957.11;105938;1256;65501;-45
2023/07/16 09:08:30;;;;;;;1.80;1.00;;;;;;;27.63;43.55;99959.41;105845;1256;71347;-44
2023/07/16 09:10:58;;;;;;;2.00;1.10;;;;;;;27.72;43.08;99921.14;105821;1256;60540;-44
2023/07/16 09:13:27;;;;;;;4.60;0.90;;;;;;;27.77;42.49;99853.45;105894;1254;61522;-45
2023/07/16 09:15:54;;;;;;;1.90;1.30;;;;;;;27.65;42.07;99810.55;105885;1254;72930;-46
2023/07/16 09:18:26;;;;;;;2.00;0.90;;;;;;;27.45;43.57;99998.14;105925;1257;65321;-44
2023/07/16 09:21:05;;;;;;;2.00;1.10;;;;;;;27.51;44.42;100109.16;105871;1254;72700;-45
2023/07/16 09:23:33;;;;;;;4.30;0.80;;;;;;;27.49;44.71;100184.84;105761;1256;60412;-43
2023/07/16 09:26:00;;;;;;;45.60;3.00;;;;;;;27.40;44.52;100163.32;105849;1254;60472;-45
2023/07/16 09:28:28;;;;;;;2.80;1.10;;;;;;;27.45;44.46;100157.04;106022;1254;73829;-46
2023/07/16 09:30:55;;;;;;;4.60;1.50;;;;;;;27.52;44.10;100131.63;106066;1253;65164;-45
2023/07/16 09:33:25;;;;;;;2.70;1.00;;;;;;;27.80;44.54;100158.25;105917;1254;73026;-45
2023/07/16 09:35:53;;;;;;;2.20;1.50;;;;;;;28.17;42.86;99956.20;105944;1256;60361;-45
2023/07/16 09:38:20;;;;;;;1.20;1.10;;;;;;;28.45;43.79;100001.90;105851;1254;60437;-45
2023/07/16 09:40:47;;;;;;;2.20;1.20;;;;;;;28.92;44.39;100097.64;105919;1255;73935;-45
2023/07/16 09:43:15;;;;;;;2.80;1.30;;;;;;;29.21;42.66;99905.52;105807;1256;65436;-46
2023/07/16 09:45:42;;;;;;;3.00;1.30;;;;;;;28.94;43.31;99978.27;106007;1254;73102;-46
2023/07/16 09:48:10;;;;;;;3.10;1.20;;;;;;;28.66;43.11;99999.09;105956;1256;60059;-46
2023/07/16 09:50:37;;;;;;;1.50;1.30;;;;;;;28.23;42.29;99875.45;105932;1254;60405;-46
2023/07/16 09:53:04;;;;;;;2.50;1.30;;;;;;;27.94;44.43;100156.66;105652;1254;75659;-46
2023/07/16 09:55:34;;;;;;;2.60;1.30;;;;;;;27.83;46.37;100398.94;106025;1256;65389;-46
2023/07/16 09:58:09;;;;;;;2.50;1.30;;;;;;;27.70;47.44;100544.23;105843;1256;72599;-46
2023/07/16 10:00:37;;;;;;;1.50;1.40;;;;;;;27.61;46.14;100424.34;105940;1255;60402;-45
2023/07/16 10:03:06;;;;;;;1.20;1.10;;;;;;;27.71;46.32;100408.81;105630;1253;60530;-44
2023/07/16 10:05:36;;;;;;;4.40;1.30;;;;;;;27.94;44.51;100225.42;105856;1254;72789;-45
2023/07/16 10:08:04;;;;;;;1.80;1.20;;;;;;;28.00;45.25;100262.70;105846;1257;64281;-45
2023/07/16 10:10:40;;;;;;;4.80;1.20;;;;;;;27.97;43.37;100103.20;105868;1254;72517;-45
2023/07/16 10:13:27;;;;;;;;;;;;;;;27.99;43.02;100005.90;102701;1295;601106;-46
2023/07/16 10:15:56;;;;;;;1.90;1.20;;;;;;;27.99;43.82;100106.05;104834;1267;59292;-47
2023/07/16 10:18:31;;;;;;;3.50;1.40;;;;;;;28.06;43.33;100058.25;105061;1267;59248;-45
2023/07/16 10:21:06;;;;;;;2.00;1.10;;;;;;;28.32;42.81;99999.10;104802;1266;71225;-47
2023/07/16 10:23:42;;;;;;;3.00;1.30;;;;;;;28.41;42.70;99971.09;104866;1269;65314;-46
2023/07/16 10:26:12;;;;;;;5.30;1.20;;;;;;;28.51;42.56;99963.54;104904;1264;247362;-44
2023/07/16 10:28:45;;;;;;;8.90;1.60;;;;;;;28.61;42.54;99951.46;105172;1270;59338;-45
2023/07/16 10:31:39;;;;;;;3.00;1.00;;;;;;;28.84;41.90;99891.39;105077;1268;59634;-45
2023/07/16 10:34:08;;;;;;;6.40;1.40;;;;;;;29.03;42.04;99880.23;105251;1262;72195;-45
2023/07/16 10:36:39;;;;;;;5.30;2.30;;;;;;;29.28;40.63;99738.49;105805;1256;65284;-45
2023/07/16 10:39:08;;;;;;;11.50;9.00;;;;;;;29.51;40.79;99715.05;105866;1254;71897;-46
2023/07/16 10:41:35;;;;;;;77.60;5.10;;;;;;;29.75;40.15;99635.09;105868;1254;59762;-49
2023/07/16 10:44:03;;;;;;;4.90;1.90;;;;;;;29.80;40.52;99647.84;105781;1257;59848;-47
2023/07/16 10:46:33;;;;;;;1.50;1.30;;;;;;;29.61;40.52;99663.34;105787;1252;73035;-45
2023/07/16 10:49:01;;;;;;;2.20;1.10;;;;;;;29.14;40.36;99697.59;105913;1251;64446;-46
2023/07/16 10:51:29;;;;;;;2.10;1.30;;;;;;;28.54;41.14;99789.65;105847;1253;71494;-48
2023/07/16 10:53:56;;;;;;;1.90;1.30;;;;;;;27.92;42.11;99935.98;105889;1253;59845;-45
2023/07/16 10:56:25;;;;;;;1.00;1.00;;;;;;;27.50;43.47;100105.55;105982;1251;60717;-45
2023/07/16 10:58:53;;;;;;;1.20;1.10;;;;;;;27.55;42.56;100065.63;105890;1251;73360;-45
2023/07/16 11:01:21;;;;;;;1.40;0.90;;;;;;;27.83;42.00;100003.89;105835;1259;65187;-45
2023/07/16 11:03:48;;;;;;;4.50;1.40;;;;;;;28.19;42.34;99996.08;105864;1251;72620;-46
2023/07/16 11:06:17;;;;;;;4.00;1.50;;;;;;;28.43;41.48;99927.85;105895;1256;59716;-45
2023/07/16 11:08:45;;;;;;;4.90;1.80;;;;;;;28.31;41.80;99912.42;105734;1251;59986;-46
2023/07/16 11:11:13;;;;;;;4.90;2.10;;;;;;;28.05;41.84;99943.09;105646;1251;72778;-47
2023/07/16 11:13:40;;;;;;;2.40;1.60;;;;;;;27.61;43.27;100099.55;105767;1258;64022;-47
2023/07/16 11:16:11;;;;;;;3.40;1.30;;;;;;;27.34;44.08;100234.96;105650;1254;71764;-47
2023/07/16 11:18:39;;;;;;;9.60;1.60;;;;;;;27.13;44.58;100331.11;105650;1260;59725;-46